sensor_id;sensor_type;location;lat;lon;timestamp;pressure;altitude;pressure_sealevel;temperature;humidity
64792;BME280;51226;47.504;19.074;2023-09-19T00:01:02;99688.06;;;24.08;51.94
64792;BME280;51226;47.504;19.074;2023-09-19T00:04:13;99689.78;;;24.09;51.99
64792;BME280;51226;47.504;19.074;2023-09-19T00:07:17;99692.31;;;24.13;51.91
64792;BME280;51226;47.504;19.074;2023-09-19T00:10:21;99693.44;;;24.06;52.15
64792;BME280;51226;47.504;19.074;2023-09-19T00:13:24;99691.06;;;23.95;52.46
64792;BME280;51226;47.504;19.074;2023-09-19T00:16:27;99686.69;;;23.93;52.63
64792;BME280;51226;47.504;19.074;2023-09-19T00:19:30;99689.56;;;23.85;52.90
64792;BME280;51226;47.504;19.074;2023-09-19T00:22:32;99688.53;;;23.91;52.91
64792;BME280;51226;47.504;19.074;2023-09-19T00:25:35;99684.47;;;23.76;53.24
64792;BME280;51226;47.504;19.074;2023-09-19T00:28:39;99681.66;;;23.80;53.40
64792;BME280;51226;47.504;19.074;2023-09-19T00:31:45;99679.94;;;23.79;53.58
64792;BME280;51226;47.504;19.074;2023-09-19T00:34:49;99675.47;;;23.80;53.63
64792;BME280;51226;47.504;19.074;2023-09-19T00:37:52;99694.06;;;23.83;53.78
64792;BME280;51226;47.504;19.074;2023-09-19T00:40:54;99684.44;;;23.77;54.08
64792;BME280;51226;47.504;19.074;2023-09-19T00:44:02;99683.63;;;23.74;54.28
64792;BME280;51226;47.504;19.074;2023-09-19T00:47:06;99686.31;;;23.72;54.51
64792;BME280;51226;47.504;19.074;2023-09-19T00:50:09;99685.53;;;23.68;54.71
64792;BME280;51226;47.504;19.074;2023-09-19T00:53:13;99695.38;;;23.66;54.83
64792;BME280;51226;47.504;19.074;2023-09-19T00:56:18;99677.03;;;23.56;55.20
64792;BME280;51226;47.504;19.074;2023-09-19T00:59:21;99685.91;;;23.55;55.27
64792;BME280;51226;47.504;19.074;2023-09-19T01:02:25;99686.72;;;23.58;55.17
64792;BME280;51226;47.504;19.074;2023-09-19T01:05:31;99680.66;;;23.52;55.38
64792;BME280;51226;47.504;19.074;2023-09-19T01:08:34;99680.00;;;23.43;55.69
64792;BME280;51226;47.504;19.074;2023-09-19T01:11:38;99672.09;;;23.40;55.79
64792;BME280;51226;47.504;19.074;2023-09-19T01:14:59;99675.75;;;23.36;55.97
64792;BME280;51226;47.504;19.074;2023-09-19T01:18:11;99685.34;;;23.42;56.01
64792;BME280;51226;47.504;19.074;2023-09-19T01:21:21;99681.00;;;23.39;56.06
64792;BME280;51226;47.504;19.074;2023-09-19T01:30:51;99674.63;;;23.45;55.98
64792;BME280;51226;47.504;19.074;2023-09-19T01:34:00;99681.09;;;23.36;56.30
64792;BME280;51226;47.504;19.074;2023-09-19T01:37:03;99680.22;;;23.36;56.33
64792;BME280;51226;47.504;19.074;2023-09-19T01:40:06;99674.84;;;23.37;56.36
64792;BME280;51226;47.504;19.074;2023-09-19T01:43:26;99673.97;;;23.37;56.42
64792;BME280;51226;47.504;19.074;2023-09-19T01:46:33;99668.69;;;23.35;56.62
64792;BME280;51226;47.504;19.074;2023-09-19T01:49:44;99666.22;;;23.27;56.83
64792;BME280;51226;47.504;19.074;2023-09-19T01:56:28;99661.03;;;23.23;57.16
64792;BME280;51226;47.504;19.074;2023-09-19T01:59:38;99661.78;;;23.28;57.24
64792;BME280;51226;47.504;19.074;2023-09-19T02:02:44;99657.50;;;23.22;57.46
64792;BME280;51226;47.504;19.074;2023-09-19T02:05:51;99661.84;;;23.25;57.43
64792;BME280;51226;47.504;19.074;2023-09-19T02:08:56;99666.53;;;23.15;57.87
64792;BME280;51226;47.504;19.074;2023-09-19T02:11:59;99669.25;;;23.12;58.02
64792;BME280;51226;47.504;19.074;2023-09-19T02:15:02;99672.75;;;23.16;57.96
64792;BME280;51226;47.504;19.074;2023-09-19T02:18:05;99667.44;;;23.16;58.17
64792;BME280;51226;47.504;19.074;2023-09-19T02:21:09;99676.38;;;23.11;58.40
64792;BME280;51226;47.504;19.074;2023-09-19T02:24:15;99677.34;;;23.09;58.58
64792;BME280;51226;47.504;19.074;2023-09-19T02:27:18;99676.50;;;23.05;58.68
64792;BME280;51226;47.504;19.074;2023-09-19T02:30:21;99659.63;;;23.08;58.76
64792;BME280;51226;47.504;19.074;2023-09-19T02:33:27;99665.84;;;23.05;58.85
64792;BME280;51226;47.504;19.074;2023-09-19T02:36:36;99664.97;;;23.05;58.87
64792;BME280;51226;47.504;19.074;2023-09-19T02:39:40;99669.66;;;22.95;59.17
64792;BME280;51226;47.504;19.074;2023-09-19T02:42:47;99664.16;;;23.03;59.00
64792;BME280;51226;47.504;19.074;2023-09-19T02:45:52;99668.84;;;22.91;59.40
64792;BME280;51226;47.504;19.074;2023-09-19T02:48:57;99669.81;;;22.89;59.54
64792;BME280;51226;47.504;19.074;2023-09-19T02:52:00;99674.38;;;22.84;59.73
64792;BME280;51226;47.504;19.074;2023-09-19T02:55:03;99668.06;;;22.88;59.67
64792;BME280;51226;47.504;19.074;2023-09-19T02:58:08;99663.81;;;22.81;59.89
64792;BME280;51226;47.504;19.074;2023-09-19T03:01:13;99662.12;;;22.76;60.10
64792;BME280;51226;47.504;19.074;2023-09-19T03:04:17;99665.56;;;22.80;59.98
64792;BME280;51226;47.504;19.074;2023-09-19T03:07:23;99660.19;;;22.83;59.81
64792;BME280;51226;47.504;19.074;2023-09-19T03:10:27;99656.84;;;22.75;60.11
64792;BME280;51226;47.504;19.074;2023-09-19T03:13:32;99661.19;;;22.79;60.04
64792;BME280;51226;47.504;19.074;2023-09-19T03:16:35;99662.22;;;22.72;60.26
64792;BME280;51226;47.504;19.074;2023-09-19T03:19:40;99671.16;;;22.69;60.37
64792;BME280;51226;47.504;19.074;2023-09-19T03:22:43;99663.31;;;22.63;60.63
64792;BME280;51226;47.504;19.074;2023-09-19T03:25:47;99675.00;;;22.56;60.92
64792;BME280;51226;47.504;19.074;2023-09-19T03:28:50;99669.81;;;22.50;61.21
64792;BME280;51226;47.504;19.074;2023-09-19T03:31:53;99658.34;;;22.48;61.37
64792;BME280;51226;47.504;19.074;2023-09-19T03:34:56;99662.78;;;22.49;61.33
64792;BME280;51226;47.504;19.074;2023-09-19T03:38:00;99669.78;;;22.51;61.46
64792;BME280;51226;47.504;19.074;2023-09-19T03:41:03;99667.88;;;22.58;61.28
64792;BME280;51226;47.504;19.074;2023-09-19T03:44:08;99676.81;;;22.55;61.49
64792;BME280;51226;47.504;19.074;2023-09-19T03:47:10;99669.72;;;22.54;61.56
64792;BME280;51226;47.504;19.074;2023-09-19T03:50:15;99667.97;;;22.53;61.74
64792;BME280;51226;47.504;19.074;2023-09-19T03:53:20;99669.00;;;22.48;62.02
64792;BME280;51226;47.504;19.074;2023-09-19T03:56:23;99677.69;;;22.54;61.86
64792;BME280;51226;47.504;19.074;2023-09-19T03:59:25;99673.37;;;22.50;62.02
64792;BME280;51226;47.504;19.074;2023-09-19T04:02:30;99674.97;;;22.57;61.83
64792;BME280;51226;47.504;19.074;2023-09-19T04:05:35;99672.25;;;22.61;61.77
64792;BME280;51226;47.504;19.074;2023-09-19T04:08:39;99684.62;;;22.62;61.79
64792;BME280;51226;47.504;19.074;2023-09-19T04:11:42;99690.84;;;22.61;61.82
64792;BME280;51226;47.504;19.074;2023-09-19T04:14:46;99689.91;;;22.63;61.61
64792;BME280;51226;47.504;19.074;2023-09-19T04:17:49;99684.56;;;22.65;61.69
64792;BME280;51226;47.504;19.074;2023-09-19T04:20:52;99685.34;;;22.68;61.66
64792;BME280;51226;47.504;19.074;2023-09-19T04:23:56;99691.41;;;22.75;61.46
64792;BME280;51226;47.504;19.074;2023-09-19T04:26:59;99692.88;;;22.87;61.10
64792;BME280;51226;47.504;19.074;2023-09-19T04:30:01;99693.84;;;22.84;61.13
64792;BME280;51226;47.504;19.074;2023-09-19T04:33:06;99690.19;;;22.88;61.17
64792;BME280;51226;47.504;19.074;2023-09-19T04:36:09;99696.47;;;22.86;61.07
64792;BME280;51226;47.504;19.074;2023-09-19T04:39:32;99692.03;;;22.86;60.84
64792;BME280;51226;47.504;19.074;2023-09-19T04:42:37;99709.88;;;22.81;60.97
64792;BME280;51226;47.504;19.074;2023-09-19T04:45:40;99716.84;;;22.85;60.62
64792;BME280;51226;47.504;19.074;2023-09-19T04:48:43;99714.34;;;22.81;60.80
64792;BME280;51226;47.504;19.074;2023-09-19T04:51:46;99723.25;;;22.78;60.79
64792;BME280;51226;47.504;19.074;2023-09-19T04:54:49;99722.91;;;22.92;59.50
64792;BME280;51226;47.504;19.074;2023-09-19T04:57:52;99723.91;;;22.88;59.82
64792;BME280;51226;47.504;19.074;2023-09-19T05:00:57;99728.97;;;22.99;59.18
64792;BME280;51226;47.504;19.074;2023-09-19T05:04:00;99725.41;;;23.00;59.01
64792;BME280;51226;47.504;19.074;2023-09-19T05:07:03;99735.25;;;22.96;59.06
64792;BME280;51226;47.504;19.074;2023-09-19T05:10:06;99725.47;;;22.97;58.91
64792;BME280;51226;47.504;19.074;2023-09-19T05:13:09;99741.53;;;22.92;59.15
64792;BME280;51226;47.504;19.074;2023-09-19T05:16:12;99740.84;;;22.84;59.53
64792;BME280;51226;47.504;19.074;2023-09-19T05:19:15;99747.97;;;22.82;59.78
64792;BME280;51226;47.504;19.074;2023-09-19T05:22:18;99754.38;;;22.73;60.21
64792;BME280;51226;47.504;19.074;2023-09-19T05:25:22;99750.94;;;22.68;60.59
64792;BME280;51226;47.504;19.074;2023-09-19T05:28:24;99764.25;;;22.66;60.89
64792;BME280;51226;47.504;19.074;2023-09-19T05:31:27;99772.87;;;22.78;60.61
64792;BME280;51226;47.504;19.074;2023-09-19T05:34:30;99770.34;;;22.71;60.97
64792;BME280;51226;47.504;19.074;2023-09-19T05:37:33;99786.28;;;22.73;61.08
64792;BME280;51226;47.504;19.074;2023-09-19T05:40:36;99778.34;;;22.71;60.90
64792;BME280;51226;47.504;19.074;2023-09-19T05:43:39;99771.50;;;22.60;61.24
64792;BME280;51226;47.504;19.074;2023-09-19T05:46:44;99780.34;;;22.60;61.47
64792;BME280;51226;47.504;19.074;2023-09-19T05:49:50;99779.19;;;22.72;60.89
64792;BME280;51226;47.504;19.074;2023-09-19T05:52:53;99772.19;;;22.69;60.62
64792;BME280;51226;47.504;19.074;2023-09-19T05:55:58;99775.66;;;22.73;60.93
64792;BME280;51226;47.504;19.074;2023-09-19T05:59:03;99783.66;;;22.71;60.36
64792;BME280;51226;47.504;19.074;2023-09-19T06:02:09;99783.78;;;22.65;60.28
64792;BME280;51226;47.504;19.074;2023-09-19T06:05:14;99789.19;;;22.62;60.14
64792;BME280;51226;47.504;19.074;2023-09-19T06:08:17;99784.03;;;22.53;60.51
64792;BME280;51226;47.504;19.074;2023-09-19T06:11:20;99792.84;;;22.55;60.16
64792;BME280;51226;47.504;19.074;2023-09-19T06:14:23;99803.69;;;22.46;60.54
64792;BME280;51226;47.504;19.074;2023-09-19T06:17:27;99805.28;;;22.54;60.26
64792;BME280;51226;47.504;19.074;2023-09-19T06:20:33;99804.53;;;22.48;60.31
64792;BME280;51226;47.504;19.074;2023-09-19T06:23:36;99809.00;;;22.46;60.32
64792;BME280;51226;47.504;19.074;2023-09-19T06:26:39;99804.59;;;22.45;60.45
64792;BME280;51226;47.504;19.074;2023-09-19T06:29:42;99809.16;;;22.36;60.82
64792;BME280;51226;47.504;19.074;2023-09-19T06:32:45;99809.31;;;22.30;61.05
64792;BME280;51226;47.504;19.074;2023-09-19T06:35:48;99812.06;;;22.23;61.22
64792;BME280;51226;47.504;19.074;2023-09-19T06:38:51;99827.19;;;22.19;61.35
64792;BME280;51226;47.504;19.074;2023-09-19T06:41:54;99815.00;;;22.09;61.61
64792;BME280;51226;47.504;19.074;2023-09-19T06:44:56;99820.22;;;22.12;61.47
64792;BME280;51226;47.504;19.074;2023-09-19T06:47:59;99837.19;;;22.05;61.99
64792;BME280;51226;47.504;19.074;2023-09-19T06:51:03;99835.59;;;21.96;62.17
64792;BME280;51226;47.504;19.074;2023-09-19T06:54:08;99835.53;;;21.99;62.01
64792;BME280;51226;47.504;19.074;2023-09-19T06:57:11;99840.87;;;21.96;62.33
64792;BME280;51226;47.504;19.074;2023-09-19T07:00:15;99840.97;;;21.91;62.45
64792;BME280;51226;47.504;19.074;2023-09-19T07:03:18;99849.09;;;21.82;62.82
64792;BME280;51226;47.504;19.074;2023-09-19T07:06:24;99848.41;;;21.69;63.38
64792;BME280;51226;47.504;19.074;2023-09-19T07:09:26;99849.25;;;21.73;63.83
64792;BME280;51226;47.504;19.074;2023-09-19T07:12:30;99861.66;;;21.71;64.17
64792;BME280;51226;47.504;19.074;2023-09-19T07:15:33;99868.66;;;21.75;64.21
64792;BME280;51226;47.504;19.074;2023-09-19T07:18:39;99875.66;;;21.82;63.58
64792;BME280;51226;47.504;19.074;2023-09-19T07:21:43;99880.97;;;21.82;63.90
64792;BME280;51226;47.504;19.074;2023-09-19T07:24:49;99881.84;;;21.81;63.59
64792;BME280;51226;47.504;19.074;2023-09-19T07:27:52;99881.81;;;21.82;63.77
64792;BME280;51226;47.504;19.074;2023-09-19T07:31:01;99887.66;;;22.03;63.25
64792;BME280;51226;47.504;19.074;2023-09-19T07:34:04;99884.22;;;21.98;63.58
64792;BME280;51226;47.504;19.074;2023-09-19T07:37:09;99884.16;;;22.02;63.20
64792;BME280;51226;47.504;19.074;2023-09-19T07:40:12;99883.31;;;22.00;63.63
64792;BME280;51226;47.504;19.074;2023-09-19T07:43:39;99882.56;;;21.92;63.75
64792;BME280;51226;47.504;19.074;2023-09-19T07:46:46;99895.03;;;21.87;64.33
64792;BME280;51226;47.504;19.074;2023-09-19T07:49:49;99903.78;;;21.94;64.51
64792;BME280;51226;47.504;19.074;2023-09-19T07:52:52;99904.53;;;22.02;64.88
64792;BME280;51226;47.504;19.074;2023-09-19T07:56:05;99906.31;;;22.00;66.16
64792;BME280;51226;47.504;19.074;2023-09-19T07:59:08;99910.03;;;21.90;65.89
64792;BME280;51226;47.504;19.074;2023-09-19T08:02:16;99914.59;;;21.80;65.87
64792;BME280;51226;47.504;19.074;2023-09-19T08:05:19;99917.34;;;21.75;66.12
64792;BME280;51226;47.504;19.074;2023-09-19T08:08:23;99919.97;;;21.77;66.82
64792;BME280;51226;47.504;19.074;2023-09-19T08:11:27;99934.09;;;21.79;65.88
64792;BME280;51226;47.504;19.074;2023-09-19T08:14:33;99928.84;;;21.76;66.56
64792;BME280;51226;47.504;19.074;2023-09-19T08:17:36;99944.72;;;21.79;66.87
64792;BME280;51226;47.504;19.074;2023-09-19T08:20:39;99945.59;;;21.79;67.10
64792;BME280;51226;47.504;19.074;2023-09-19T08:23:44;99958.88;;;21.78;67.33
64792;BME280;51226;47.504;19.074;2023-09-19T08:26:48;99958.88;;;21.78;67.49
64792;BME280;51226;47.504;19.074;2023-09-19T08:29:51;99965.97;;;21.79;67.10
64792;BME280;51226;47.504;19.074;2023-09-19T08:32:57;99973.13;;;21.74;67.85
64792;BME280;51226;47.504;19.074;2023-09-19T08:36:04;99960.75;;;21.71;67.22
64792;BME280;51226;47.504;19.074;2023-09-19T08:39:06;99974.84;;;21.75;67.81
64792;BME280;51226;47.504;19.074;2023-09-19T08:42:11;99967.62;;;21.86;67.57
64792;BME280;51226;47.504;19.074;2023-09-19T08:45:15;99979.13;;;21.85;65.80
64792;BME280;51226;47.504;19.074;2023-09-19T08:48:25;99983.50;;;21.89;66.73
64792;BME280;51226;47.504;19.074;2023-09-19T08:51:42;100003.59;;;22.07;66.56
64792;BME280;51226;47.504;19.074;2023-09-19T08:54:48;100003.41;;;22.19;65.61
64792;BME280;51226;47.504;19.074;2023-09-19T08:58:02;100014.78;;;22.29;65.27
64792;BME280;51226;47.504;19.074;2023-09-19T09:01:09;100024.66;;;22.19;66.01
64792;BME280;51226;47.504;19.074;2023-09-19T09:04:15;100024.56;;;22.26;65.85
64792;BME280;51226;47.504;19.074;2023-09-19T09:07:18;100036.06;;;22.26;65.68
64792;BME280;51226;47.504;19.074;2023-09-19T09:10:23;100027.28;;;22.21;66.59
64792;BME280;51226;47.504;19.074;2023-09-19T09:13:26;100021.91;;;22.24;65.94
64792;BME280;51226;47.504;19.074;2023-09-19T09:16:30;100014.75;;;22.32;65.75
64792;BME280;51226;47.504;19.074;2023-09-19T09:19:33;100001.38;;;22.37;66.12
64792;BME280;51226;47.504;19.074;2023-09-19T09:22:36;99977.50;;;22.35;65.33
64792;BME280;51226;47.504;19.074;2023-09-19T09:28:57;99979.34;;;22.80;64.46
64792;BME280;51226;47.504;19.074;2023-09-19T09:32:15;99964.72;;;23.03;65.03
64792;BME280;51226;47.504;19.074;2023-09-19T09:35:20;99957.66;;;23.45;64.17
64792;BME280;51226;47.504;19.074;2023-09-19T09:38:25;99950.84;;;24.10;62.29
64792;BME280;51226;47.504;19.074;2023-09-19T09:41:36;99949.03;;;24.47;60.19
64792;BME280;51226;47.504;19.074;2023-09-19T09:44:41;99952.69;;;24.44;58.96
64792;BME280;51226;47.504;19.074;2023-09-19T09:47:48;99957.63;;;24.23;59.09
64792;BME280;51226;47.504;19.074;2023-09-19T09:50:59;99966.16;;;24.02;59.65
64792;BME280;51226;47.504;19.074;2023-09-19T09:54:17;99979.94;;;23.80;60.46
64792;BME280;51226;47.504;19.074;2023-09-19T09:57:24;99986.31;;;23.75;61.19
64792;BME280;51226;47.504;19.074;2023-09-19T10:00:29;99997.56;;;23.89;60.31
64792;BME280;51226;47.504;19.074;2023-09-19T10:03:45;100002.16;;;23.81;61.36
64792;BME280;51226;47.504;19.074;2023-09-19T10:06:54;99992.38;;;23.81;62.52
64792;BME280;51226;47.504;19.074;2023-09-19T10:09:57;99984.00;;;23.98;61.22
64792;BME280;51226;47.504;19.074;2023-09-19T10:13:09;99987.72;;;24.29;59.37
64792;BME280;51226;47.504;19.074;2023-09-19T10:16:14;99989.56;;;25.28;56.97
64792;BME280;51226;47.504;19.074;2023-09-19T10:19:23;99985.59;;;26.28;52.17
64792;BME280;51226;47.504;19.074;2023-09-19T10:22:30;99990.09;;;26.53;52.16
64792;BME280;51226;47.504;19.074;2023-09-19T10:25:36;100000.50;;;26.35;51.28
64792;BME280;51226;47.504;19.074;2023-09-19T10:28:42;99989.81;;;26.09;52.27
64792;BME280;51226;47.504;19.074;2023-09-19T10:31:47;99991.13;;;25.94;52.95
64792;BME280;51226;47.504;19.074;2023-09-19T10:34:50;99992.31;;;25.85;52.84
64792;BME280;51226;47.504;19.074;2023-09-19T10:38:00;100003.03;;;25.83;53.26
64792;BME280;51226;47.504;19.074;2023-09-19T10:41:06;100006.87;;;25.75;53.09
64792;BME280;51226;47.504;19.074;2023-09-19T10:44:10;100011.50;;;25.69;53.83
64792;BME280;51226;47.504;19.074;2023-09-19T10:47:13;100005.22;;;25.70;53.31
64792;BME280;51226;47.504;19.074;2023-09-19T10:50:20;100005.41;;;25.64;53.81
64792;BME280;51226;47.504;19.074;2023-09-19T10:53:27;100002.22;;;25.51;53.95
64792;BME280;51226;47.504;19.074;2023-09-19T10:56:32;100003.34;;;25.44;53.65
64792;BME280;51226;47.504;19.074;2023-09-19T10:59:40;100009.87;;;25.32;53.22
64792;BME280;51226;47.504;19.074;2023-09-19T11:03:22;100016.91;;;25.37;53.96
64792;BME280;51226;47.504;19.074;2023-09-19T11:06:27;100022.84;;;25.46;52.94
64792;BME280;51226;47.504;19.074;2023-09-19T11:12:48;100041.63;;;25.10;54.03
64792;BME280;51226;47.504;19.074;2023-09-19T11:19:03;100052.22;;;25.13;54.27
64792;BME280;51226;47.504;19.074;2023-09-19T11:22:07;100044.13;;;25.49;53.92
64792;BME280;51226;47.504;19.074;2023-09-19T11:28:36;100037.19;;;28.06;46.30
64792;BME280;51226;47.504;19.074;2023-09-19T11:31:44;100037.31;;;29.31;42.64
64792;BME280;51226;47.504;19.074;2023-09-19T11:34:49;100026.84;;;30.03;41.14
64792;BME280;51226;47.504;19.074;2023-09-19T11:47:28;100018.47;;;32.30;35.87
64792;BME280;51226;47.504;19.074;2023-09-19T11:50:31;100005.34;;;32.70;34.26
64792;BME280;51226;47.504;19.074;2023-09-19T11:53:35;100007.31;;;32.04;35.14
64792;BME280;51226;47.504;19.074;2023-09-19T11:56:42;99994.84;;;31.38;35.38
64792;BME280;51226;47.504;19.074;2023-09-19T11:59:46;99998.38;;;31.56;35.60
64792;BME280;51226;47.504;19.074;2023-09-19T12:02:50;99995.16;;;31.97;34.62
64792;BME280;51226;47.504;19.074;2023-09-19T12:06:00;99991.16;;;32.20;34.46
64792;BME280;51226;47.504;19.074;2023-09-19T12:09:05;99994.44;;;32.25;33.99
64792;BME280;51226;47.504;19.074;2023-09-19T12:15:25;99987.44;;;32.37;33.54
64792;BME280;51226;47.504;19.074;2023-09-19T12:18:31;99991.94;;;32.22;34.21
64792;BME280;51226;47.504;19.074;2023-09-19T12:21:34;99997.19;;;32.09;34.84
64792;BME280;51226;47.504;19.074;2023-09-19T12:24:39;99994.63;;;31.90;34.51
64792;BME280;51226;47.504;19.074;2023-09-19T12:27:44;99999.69;;;31.65;34.84
64792;BME280;51226;47.504;19.074;2023-09-19T12:30:49;99992.84;;;31.42;35.54
64792;BME280;51226;47.504;19.074;2023-09-19T12:33:54;100008.56;;;31.67;35.31
64792;BME280;51226;47.504;19.074;2023-09-19T12:37:08;100008.12;;;31.74;35.25
64792;BME280;51226;47.504;19.074;2023-09-19T12:40:14;100014.31;;;31.43;35.86
64792;BME280;51226;47.504;19.074;2023-09-19T12:43:20;100011.69;;;31.08;36.17
64792;BME280;51226;47.504;19.074;2023-09-19T12:46:24;100009.16;;;30.70;37.04
64792;BME280;51226;47.504;19.074;2023-09-19T12:49:28;100013.94;;;30.82;37.62
64792;BME280;51226;47.504;19.074;2023-09-19T12:52:34;100013.03;;;31.17;36.11
64792;BME280;51226;47.504;19.074;2023-09-19T12:55:43;100006.91;;;31.31;35.78
64792;BME280;51226;47.504;19.074;2023-09-19T12:58:52;100016.72;;;31.32;36.06
64792;BME280;51226;47.504;19.074;2023-09-19T13:02:03;100012.09;;;31.34;36.03
64792;BME280;51226;47.504;19.074;2023-09-19T13:05:08;100010.19;;;31.53;35.62
64792;BME280;51226;47.504;19.074;2023-09-19T13:08:32;100013.41;;;31.60;35.78
64792;BME280;51226;47.504;19.074;2023-09-19T13:11:37;100011.28;;;31.49;35.42
64792;BME280;51226;47.504;19.074;2023-09-19T13:14:45;100011.53;;;31.11;36.26
64792;BME280;51226;47.504;19.074;2023-09-19T13:17:54;100002.69;;;31.09;36.17
64792;BME280;51226;47.504;19.074;2023-09-19T13:21:07;100004.25;;;30.78;37.04
64792;BME280;51226;47.504;19.074;2023-09-19T13:24:27;100013.13;;;30.80;37.10
64792;BME280;51226;47.504;19.074;2023-09-19T13:27:31;100007.00;;;31.12;36.09
64792;BME280;51226;47.504;19.074;2023-09-19T13:30:33;100004.22;;;31.31;35.83
64792;BME280;51226;47.504;19.074;2023-09-19T13:33:44;100007.78;;;31.31;35.59
64792;BME280;51226;47.504;19.074;2023-09-19T13:36:47;100009.16;;;31.38;35.45
64792;BME280;51226;47.504;19.074;2023-09-19T13:39:53;100005.66;;;31.20;35.92
64792;BME280;51226;47.504;19.074;2023-09-19T13:42:55;100015.97;;;31.12;35.63
64792;BME280;51226;47.504;19.074;2023-09-19T13:46:00;100019.78;;;31.08;35.69
64792;BME280;51226;47.504;19.074;2023-09-19T13:49:03;100022.78;;;31.02;35.28
64792;BME280;51226;47.504;19.074;2023-09-19T13:52:06;100031.03;;;30.81;35.80
64792;BME280;51226;47.504;19.074;2023-09-19T13:55:09;100030.84;;;30.67;36.30
64792;BME280;51226;47.504;19.074;2023-09-19T13:58:12;100032.12;;;30.60;36.57
64792;BME280;51226;47.504;19.074;2023-09-19T14:01:15;100034.81;;;30.42;37.04
64792;BME280;51226;47.504;19.074;2023-09-19T14:04:18;100034.94;;;30.20;37.43
64792;BME280;51226;47.504;19.074;2023-09-19T14:07:20;100032.66;;;30.12;37.77
64792;BME280;51226;47.504;19.074;2023-09-19T14:10:23;100041.94;;;30.05;37.50
64792;BME280;51226;47.504;19.074;2023-09-19T14:13:26;100038.44;;;29.86;37.58
64792;BME280;51226;47.504;19.074;2023-09-19T14:16:29;100047.25;;;29.69;37.90
64792;BME280;51226;47.504;19.074;2023-09-19T14:19:33;100037.56;;;29.46;38.37
64792;BME280;51226;47.504;19.074;2023-09-19T14:22:37;100042.91;;;29.27;38.77
64792;BME280;51226;47.504;19.074;2023-09-19T14:25:40;100047.94;;;29.14;39.53
64792;BME280;51226;47.504;19.074;2023-09-19T14:28:43;100051.03;;;28.84;40.34
64792;BME280;51226;47.504;19.074;2023-09-19T14:31:47;100046.63;;;28.61;40.94
64792;BME280;51226;47.504;19.074;2023-09-19T14:34:50;100047.25;;;28.45;41.19
64792;BME280;51226;47.504;19.074;2023-09-19T14:37:52;100044.94;;;28.36;41.46
64792;BME280;51226;47.504;19.074;2023-09-19T14:40:59;100044.06;;;28.14;42.31
64792;BME280;51226;47.504;19.074;2023-09-19T14:44:02;100036.03;;;27.90;42.97
64792;BME280;51226;47.504;19.074;2023-09-19T14:47:06;100039.34;;;27.73;42.97
64792;BME280;51226;47.504;19.074;2023-09-19T14:50:09;100034.00;;;27.49;43.24
64792;BME280;51226;47.504;19.074;2023-09-19T14:53:13;100035.28;;;27.39;43.39
64792;BME280;51226;47.504;19.074;2023-09-19T14:56:16;100031.44;;;27.21;43.82
64792;BME280;51226;47.504;19.074;2023-09-19T14:59:21;100041.97;;;27.02;44.16
64792;BME280;51226;47.504;19.074;2023-09-19T15:02:24;100039.72;;;26.90;44.29
64792;BME280;51226;47.504;19.074;2023-09-19T15:05:27;100048.97;;;26.79;44.18
64792;BME280;51226;47.504;19.074;2023-09-19T15:08:33;100043.66;;;26.51;44.84
64792;BME280;51226;47.504;19.074;2023-09-19T15:11:41;100048.22;;;26.48;45.01
64792;BME280;51226;47.504;19.074;2023-09-19T15:14:43;100049.41;;;26.39;45.17
64792;BME280;51226;47.504;19.074;2023-09-19T15:17:46;100044.00;;;26.14;45.63
64792;BME280;51226;47.504;19.074;2023-09-19T15:20:49;100050.50;;;26.05;45.70
64792;BME280;51226;47.504;19.074;2023-09-19T15:23:53;100058.00;;;25.92;46.45
64792;BME280;51226;47.504;19.074;2023-09-19T15:26:56;100053.75;;;25.85;46.38
64792;BME280;51226;47.504;19.074;2023-09-19T15:30:00;100060.22;;;25.78;45.94
64792;BME280;51226;47.504;19.074;2023-09-19T15:33:07;100062.12;;;25.73;45.77
64792;BME280;51226;47.504;19.074;2023-09-19T15:36:11;100062.56;;;25.59;46.19
64792;BME280;51226;47.504;19.074;2023-09-19T15:39:14;100061.06;;;25.48;46.09
64792;BME280;51226;47.504;19.074;2023-09-19T15:42:18;100073.22;;;25.27;46.68
64792;BME280;51226;47.504;19.074;2023-09-19T15:45:21;100081.97;;;25.32;46.58
64792;BME280;51226;47.504;19.074;2023-09-19T15:48:24;100085.81;;;25.21;46.93
64792;BME280;51226;47.504;19.074;2023-09-19T15:51:27;100080.09;;;25.03;47.45
64792;BME280;51226;47.504;19.074;2023-09-19T15:54:30;100090.91;;;24.97;47.84
64792;BME280;51226;47.504;19.074;2023-09-19T15:57:38;100089.13;;;24.98;48.02
64792;BME280;51226;47.504;19.074;2023-09-19T16:00:41;100081.44;;;24.85;48.36
64792;BME280;51226;47.504;19.074;2023-09-19T16:03:51;100085.19;;;24.78;48.72
64792;BME280;51226;47.504;19.074;2023-09-19T16:07:00;100085.28;;;24.73;49.27
64792;BME280;51226;47.504;19.074;2023-09-19T16:10:04;100089.75;;;24.73;48.91
64792;BME280;51226;47.504;19.074;2023-09-19T16:13:07;100088.34;;;24.58;49.16
64792;BME280;51226;47.504;19.074;2023-09-19T16:16:18;100089.31;;;24.52;49.20
64792;BME280;51226;47.504;19.074;2023-09-19T16:19:25;100092.19;;;24.45;49.49
64792;BME280;51226;47.504;19.074;2023-09-19T16:22:27;100094.94;;;24.41;49.85
64792;BME280;51226;47.504;19.074;2023-09-19T16:25:30;100100.22;;;24.43;49.89
64792;BME280;51226;47.504;19.074;2023-09-19T16:28:37;100095.09;;;24.34;50.16
64792;BME280;51226;47.504;19.074;2023-09-19T16:31:40;100089.91;;;24.29;50.40
64792;BME280;51226;47.504;19.074;2023-09-19T16:34:44;100089.16;;;24.22;50.61
64792;BME280;51226;47.504;19.074;2023-09-19T16:37:47;100083.81;;;24.22;50.91